createdAt,value
2022-10-09T00:02:25.167Z,5.50
2022-10-09T00:04:54.608Z,5.72
2022-10-09T00:07:24.022Z,8.63
2022-10-09T00:09:53.369Z,5.18
2022-10-09T00:12:22.741Z,6.28
2022-10-09T00:14:52.091Z,4.78
2022-10-09T00:17:22.913Z,5.28
2022-10-09T00:19:52.257Z,5.20
2022-10-09T00:22:21.678Z,7.53
2022-10-09T00:24:51.066Z,5.82
2022-10-09T00:27:22.766Z,5.75
2022-10-09T00:29:52.583Z,5.38
2022-10-09T00:32:23.365Z,6.07
2022-10-09T00:34:53.453Z,6.38
2022-10-09T00:37:22.812Z,7.07
2022-10-09T00:39:52.170Z,6.50
2022-10-09T00:42:21.587Z,6.20
2022-10-09T00:44:57.675Z,6.32
2022-10-09T00:47:33.895Z,6.15
2022-10-09T00:50:09.546Z,5.82
2022-10-09T00:52:39.275Z,6.07
2022-10-09T00:55:10.337Z,5.90
2022-10-09T00:57:41.657Z,5.53
2022-10-09T01:00:14.917Z,6.55
2022-10-09T01:05:15.554Z,5.20
2022-10-09T01:07:54.137Z,5.13
2022-10-09T01:10:41.551Z,5.50
2022-10-09T01:13:21.401Z,7.15
2022-10-09T01:15:56.623Z,6.20
2022-10-09T01:19:05.907Z,6.18
2022-10-09T01:21:44.898Z,6.40
2022-10-09T01:24:26.838Z,6.47
2022-10-09T01:27:11.845Z,6.95
2022-10-09T01:29:47.357Z,5.90
2022-10-09T01:32:22.879Z,6.25
2022-10-09T01:34:53.805Z,5.90
2022-10-09T01:37:24.478Z,6.95
2022-10-09T01:39:55.129Z,6.93
2022-10-09T01:42:29.821Z,6.70
2022-10-09T01:44:59.593Z,6.40
2022-10-09T01:47:29.330Z,7.13
2022-10-09T01:50:05.149Z,6.80
2022-10-09T01:52:45.281Z,7.35
2022-10-09T01:55:32.192Z,7.00
2022-10-09T01:58:11.112Z,7.28
2022-10-09T02:00:47.813Z,7.38
2022-10-09T02:03:18.379Z,7.32
2022-10-09T02:05:52.401Z,7.60
2022-10-09T02:08:25.074Z,7.47
2022-10-09T02:11:00.052Z,7.25
2022-10-09T02:13:32.630Z,7.15
2022-10-09T02:16:12.388Z,7.00
2022-10-09T02:18:46.144Z,7.30
2022-10-09T02:21:22.158Z,7.10
2022-10-09T02:23:52.830Z,7.30
2022-10-09T02:26:22.749Z,6.63
2022-10-09T02:28:53.757Z,7.28
2022-10-09T02:31:27.604Z,6.95
2022-10-09T02:33:58.329Z,6.80
2022-10-09T02:36:29.201Z,7.88
2022-10-09T02:38:59.809Z,7.18
2022-10-09T02:41:29.838Z,7.50
2022-10-09T02:44:00.608Z,7.57
2022-10-09T02:46:30.219Z,6.72
2022-10-09T02:48:59.899Z,7.28
2022-10-09T02:51:29.252Z,6.82
2022-10-09T02:53:59.633Z,7.95
2022-10-09T02:56:30.212Z,7.07
2022-10-09T02:59:00.958Z,8.15
2022-10-09T03:01:30.372Z,6.57
2022-10-09T03:04:00.205Z,8.25
2022-10-09T03:06:30.725Z,6.97
2022-10-09T03:09:00.093Z,6.80
2022-10-09T03:11:29.486Z,6.75
2022-10-09T03:14:00.538Z,6.68
2022-10-09T03:16:30.087Z,7.18
2022-10-09T03:19:00.036Z,7.25
2022-10-09T03:21:30.085Z,8.07
2022-10-09T03:23:59.443Z,6.38
2022-10-09T03:26:29.459Z,6.80
2022-10-09T03:29:00.204Z,6.47
2022-10-09T03:34:18.976Z,6.55
2022-10-09T03:36:48.396Z,6.25
2022-10-09T03:39:17.743Z,6.22
2022-10-09T03:41:47.095Z,6.18
2022-10-09T03:44:17.899Z,6.47
2022-10-09T03:46:47.644Z,5.90
2022-10-09T03:49:17.801Z,6.07
2022-10-09T03:51:47.215Z,5.20
2022-10-09T03:54:16.574Z,5.38
2022-10-09T03:56:45.894Z,5.20
2022-10-09T03:59:16.770Z,5.20
2022-10-09T04:01:46.114Z,5.10
2022-10-09T04:04:15.682Z,5.95
2022-10-09T04:06:45.345Z,5.70
2022-10-09T04:09:14.737Z,6.43
2022-10-09T04:11:44.101Z,6.85
2022-10-09T04:14:13.556Z,6.80
2022-10-09T04:16:44.339Z,6.40
2022-10-09T04:19:13.831Z,7.07
2022-10-09T04:21:43.202Z,6.85
2022-10-09T04:24:12.574Z,7.45
2022-10-09T04:26:41.997Z,6.68
2022-10-09T04:29:12.857Z,6.43
2022-10-09T04:31:43.643Z,6.47
2022-10-09T04:34:13.097Z,7.28
2022-10-09T04:36:42.487Z,6.80
2022-10-09T04:39:11.864Z,6.68
2022-10-09T04:41:41.228Z,6.50
2022-10-09T04:44:11.652Z,6.55
2022-10-09T04:46:41.081Z,6.22
2022-10-09T04:49:15.198Z,6.07
2022-10-09T04:51:46.003Z,6.13
2022-10-09T04:54:15.388Z,6.45
2022-10-09T04:56:44.716Z,6.82
2022-10-09T04:59:14.105Z,7.93
2022-10-09T05:01:43.586Z,6.38
2022-10-09T05:04:14.425Z,7.55
2022-10-09T05:06:43.785Z,7.05
2022-10-09T05:09:13.162Z,6.78
2022-10-09T05:11:43.043Z,7.05
2022-10-09T05:14:12.628Z,7.95
2022-10-09T05:17:08.486Z,7.70
2022-10-09T05:19:33.150Z,8.20
2022-10-09T05:22:02.644Z,9.05
2022-10-09T05:24:32.105Z,8.23
2022-10-09T05:27:01.532Z,10.88
2022-10-09T05:29:30.970Z,11.18
2022-10-09T05:32:00.385Z,11.80
2022-10-09T05:34:29.863Z,12.27
2022-10-09T05:37:00.589Z,10.95
2022-10-09T05:39:29.981Z,10.15
2022-10-09T05:41:59.569Z,11.02
2022-10-09T05:44:29.793Z,11.00
2022-10-09T05:46:59.456Z,10.13
2022-10-09T05:49:28.988Z,9.82
2022-10-09T05:51:59.841Z,10.30
2022-10-09T05:54:29.518Z,10.02
2022-10-09T05:56:59.023Z,10.55
2022-10-09T05:59:28.701Z,11.57
2022-10-09T06:01:59.062Z,12.25
2022-10-09T06:04:29.008Z,10.98
2022-10-09T06:06:59.925Z,10.68
2022-10-09T06:09:29.729Z,10.98
2022-10-09T06:11:59.129Z,10.25
2022-10-09T06:14:28.677Z,10.63
2022-10-09T06:17:01.844Z,10.68
2022-10-09T06:22:02.354Z,9.95
2022-10-09T06:24:31.835Z,11.02
2022-10-09T06:27:01.448Z,10.40
2022-10-09T06:29:31.120Z,9.77
2022-10-09T06:32:00.480Z,11.23
2022-10-09T06:34:29.833Z,12.68
2022-10-09T06:36:59.193Z,11.85
2022-10-09T06:39:29.916Z,11.40
2022-10-09T06:41:59.265Z,11.40
2022-10-09T06:44:44.434Z,10.75
2022-10-09T06:47:13.817Z,10.18
2022-10-09T06:49:43.232Z,11.50
2022-10-09T06:52:12.668Z,9.70
2022-10-09T06:54:43.501Z,9.85
2022-10-09T06:57:12.872Z,9.73
2022-10-09T06:59:42.302Z,10.63
2022-10-09T07:02:11.778Z,9.80
2022-10-09T07:04:41.187Z,10.80
2022-10-09T07:07:10.543Z,10.32
2022-10-09T07:09:40.181Z,10.15
2022-10-09T07:12:10.926Z,10.27
2022-10-09T07:14:40.288Z,10.23
2022-10-09T07:17:09.949Z,9.88
2022-10-09T07:19:39.536Z,9.35
2022-10-09T07:22:11.385Z,11.10
2022-10-09T07:24:40.773Z,10.60
2022-10-09T07:27:11.625Z,10.32
2022-10-09T07:29:41.110Z,10.52
2022-10-09T07:32:10.792Z,10.35
2022-10-09T07:34:40.228Z,10.10
2022-10-09T07:37:09.686Z,10.45
2022-10-09T07:39:44.195Z,9.95
2022-10-09T07:42:15.690Z,9.65
2022-10-09T07:44:45.049Z,11.70
2022-10-09T07:47:14.429Z,9.57
2022-10-09T07:49:43.773Z,9.98
2022-10-09T07:52:13.131Z,10.00
2022-10-09T07:54:42.522Z,9.70
2022-10-09T07:57:11.892Z,9.75
2022-10-09T07:59:42.690Z,9.77
2022-10-09T08:02:12.140Z,9.20
2022-10-09T08:04:42.385Z,9.05
2022-10-09T08:07:11.809Z,9.23
2022-10-09T08:09:41.428Z,8.35
2022-10-09T08:12:10.780Z,9.10
2022-10-09T08:14:40.134Z,9.57
2022-10-09T08:17:11.000Z,9.82
2022-10-09T08:19:40.490Z,9.63
2022-10-09T08:22:11.614Z,9.05
2022-10-09T08:24:41.023Z,8.65
2022-10-09T08:27:10.443Z,9.13
2022-10-09T08:29:40.527Z,10.40
2022-10-09T08:32:11.254Z,9.80
2022-10-09T08:34:40.769Z,9.15
2022-10-09T08:37:10.147Z,8.85
2022-10-09T08:39:39.519Z,9.02
2022-10-09T08:42:24.376Z,8.32
2022-10-09T08:44:54.061Z,7.80
2022-10-09T08:47:29.362Z,8.50
2022-10-09T08:50:09.241Z,8.68
2022-10-09T08:52:50.709Z,8.95
2022-10-09T08:55:25.827Z,8.32
2022-10-09T08:57:58.870Z,8.25
2022-10-09T09:00:37.286Z,8.90
2022-10-09T09:03:39.151Z,8.55
2022-10-09T09:06:16.231Z,9.02
2022-10-09T09:08:55.159Z,7.53
2022-10-09T09:11:40.045Z,7.13
2022-10-09T09:14:32.913Z,7.07
2022-10-09T09:17:18.536Z,7.97
2022-10-09T09:20:04.188Z,8.02
2022-10-09T09:22:35.488Z,9.15
2022-10-09T09:25:23.324Z,9.02
2022-10-09T09:27:55.755Z,7.68
2022-10-09T09:30:30.439Z,8.52
2022-10-09T09:33:14.342Z,7.50
2022-10-09T09:35:56.577Z,7.85
2022-10-09T09:38:26.049Z,7.63
2022-10-09T09:40:55.736Z,8.32
2022-10-09T09:43:27.896Z,8.25
2022-10-09T09:46:01.178Z,8.15
2022-10-09T09:48:38.405Z,7.22
2022-10-09T09:51:34.424Z,7.35
2022-10-09T09:54:14.502Z,8.68
2022-10-09T09:59:41.674Z,7.90
2022-10-09T10:02:17.888Z,7.60
2022-10-09T10:04:53.951Z,7.65
2022-10-09T10:07:34.311Z,8.60
2022-10-09T10:10:18.710Z,8.45
2022-10-09T10:12:57.826Z,9.25
2022-10-09T10:15:31.825Z,7.95
2022-10-09T10:18:05.097Z,8.98
2022-10-09T10:20:46.092Z,7.97
2022-10-09T10:23:38.549Z,8.90
2022-10-09T10:26:20.944Z,8.38
2022-10-09T10:28:55.789Z,8.82
2022-10-09T10:31:44.501Z,8.85
2022-10-09T10:34:22.906Z,7.72
2022-10-09T10:37:03.552Z,8.18
2022-10-09T10:39:43.808Z,8.05
2022-10-09T10:42:23.444Z,8.13
2022-10-09T10:45:03.875Z,9.23
2022-10-09T10:47:44.458Z,8.40
2022-10-09T10:50:17.391Z,7.00
2022-10-09T10:53:03.422Z,7.68
2022-10-09T10:55:53.969Z,6.60
2022-10-09T10:58:31.588Z,7.03
2022-10-09T11:01:23.855Z,7.13
2022-10-09T11:04:22.989Z,6.05
2022-10-09T11:07:08.665Z,5.68
2022-10-09T11:09:53.492Z,5.60
2022-10-09T11:12:53.522Z,5.63
2022-10-09T11:15:38.360Z,5.25
2022-10-09T11:18:40.933Z,5.40
2022-10-09T11:21:33.461Z,4.95
2022-10-09T11:24:43.213Z,6.15
2022-10-09T11:27:19.904Z,5.38
2022-10-09T11:29:58.290Z,5.57
2022-10-09T11:32:35.948Z,5.55
2022-10-09T11:35:16.273Z,4.68
2022-10-09T11:37:57.437Z,4.90
2022-10-09T11:40:34.224Z,4.80
2022-10-09T11:43:28.491Z,4.32
2022-10-09T11:46:05.527Z,4.43
2022-10-09T11:48:43.794Z,4.38
2022-10-09T11:51:26.093Z,4.47
2022-10-09T11:53:56.353Z,5.07
2022-10-09T11:56:28.777Z,4.55
2022-10-09T11:59:01.585Z,4.28
2022-10-09T12:01:36.996Z,4.10
2022-10-09T12:04:10.188Z,3.85
2022-10-09T12:06:51.137Z,4.20
2022-10-09T12:09:28.378Z,5.93
2022-10-09T12:12:06.198Z,6.45
2022-10-09T12:14:39.276Z,4.75
2022-10-09T12:19:50.159Z,6.18
2022-10-09T12:22:24.982Z,4.10
2022-10-09T12:24:58.794Z,4.28
2022-10-09T12:27:33.592Z,4.68
2022-10-09T12:30:20.948Z,4.65
2022-10-09T12:32:59.097Z,4.93
2022-10-09T12:35:38.070Z,4.30
2022-10-09T12:38:18.674Z,4.15
2022-10-09T12:40:49.307Z,4.63
2022-10-09T12:43:22.449Z,4.25
2022-10-09T12:45:54.639Z,4.72
2022-10-09T12:48:28.462Z,4.07
2022-10-09T12:50:57.857Z,4.43
2022-10-09T12:53:29.955Z,4.38
2022-10-09T12:56:03.330Z,4.27
2022-10-09T12:58:38.802Z,4.72
2022-10-09T13:01:14.733Z,4.20
2022-10-09T13:03:56.999Z,6.32
2022-10-09T13:06:29.916Z,5.65
2022-10-09T13:11:37.938Z,5.45
2022-10-09T13:14:08.479Z,4.95
2022-10-09T13:16:43.573Z,4.90
2022-10-09T13:19:26.280Z,5.15
2022-10-09T13:22:09.797Z,4.35
2022-10-09T13:24:39.169Z,4.40
2022-10-09T13:27:10.292Z,4.60
2022-10-09T13:29:40.173Z,6.10
2022-10-09T13:32:13.691Z,4.68
2022-10-09T13:34:45.987Z,4.33
2022-10-09T13:37:20.079Z,3.90
2022-10-09T13:39:49.465Z,4.25
2022-10-09T13:42:19.230Z,3.88
2022-10-09T13:44:48.884Z,4.75
2022-10-09T13:47:23.349Z,4.70
2022-10-09T13:49:55.103Z,4.20
2022-10-09T13:52:24.554Z,4.57
2022-10-09T13:54:53.974Z,4.45
2022-10-09T13:57:23.324Z,4.15
2022-10-09T13:59:52.689Z,4.22
2022-10-09T14:02:22.075Z,4.03
2022-10-09T14:04:51.445Z,4.20
2022-10-09T14:07:22.161Z,4.28
2022-10-09T14:09:51.541Z,4.07
2022-10-09T14:12:20.902Z,4.22
2022-10-09T14:14:50.267Z,4.25
2022-10-09T14:17:19.692Z,3.15
2022-10-09T14:19:49.116Z,3.92
2022-10-09T14:22:18.606Z,3.55
2022-10-09T14:24:50.294Z,3.47
2022-10-09T14:27:19.636Z,3.13
2022-10-09T14:29:51.103Z,3.85
2022-10-09T14:32:22.660Z,3.55
2022-10-09T14:34:53.057Z,3.97
2022-10-09T14:37:40.661Z,3.50
2022-10-09T14:40:13.133Z,4.80
2022-10-09T14:42:42.755Z,4.15
2022-10-09T14:45:12.691Z,3.30
2022-10-09T14:47:42.118Z,3.40
2022-10-09T14:50:11.953Z,3.75
2022-10-09T14:52:42.212Z,3.50
2022-10-09T14:55:12.959Z,3.92
2022-10-09T14:57:43.565Z,4.63
2022-10-09T15:00:15.359Z,3.65
2022-10-09T15:02:44.755Z,4.10
2022-10-09T15:05:14.115Z,3.58
2022-10-09T15:07:43.505Z,4.15
2022-10-09T15:10:14.770Z,4.25
2022-10-09T15:12:44.117Z,3.95
2022-10-09T15:15:13.477Z,4.05
2022-10-09T15:17:42.866Z,3.65
2022-10-09T15:20:12.213Z,4.00
2022-10-09T15:22:41.561Z,4.13
2022-10-09T15:25:15.612Z,4.35
2022-10-09T15:27:45.005Z,3.67
2022-10-09T15:30:15.161Z,4.28
2022-10-09T15:32:44.517Z,4.30
2022-10-09T15:35:13.928Z,3.90
2022-10-09T15:40:15.475Z,4.20
2022-10-09T15:42:47.101Z,5.78
2022-10-09T15:45:16.956Z,4.53
2022-10-09T15:47:53.500Z,4.85
2022-10-09T15:50:22.955Z,5.50
2022-10-09T15:52:54.634Z,4.50
2022-10-09T15:55:25.670Z,4.22
2022-10-09T15:57:55.096Z,5.18
2022-10-09T16:00:24.543Z,5.25
2022-10-09T16:02:54.002Z,4.95
2022-10-09T16:05:23.433Z,5.70
2022-10-09T16:07:53.290Z,5.57
2022-10-09T16:10:24.069Z,4.97
2022-10-09T16:12:53.458Z,5.70
2022-10-09T16:15:23.949Z,5.68
2022-10-09T16:17:54.317Z,5.45
2022-10-09T16:20:23.832Z,7.05
2022-10-09T16:22:53.431Z,5.22
2022-10-09T16:25:24.260Z,6.93
2022-10-09T16:27:53.697Z,8.20
2022-10-09T16:30:23.407Z,6.20
2022-10-09T16:32:53.385Z,5.30
2022-10-09T16:35:23.915Z,5.30
2022-10-09T16:37:53.649Z,7.60
2022-10-09T16:40:37.414Z,8.80
2022-10-09T16:43:14.461Z,7.05
2022-10-09T16:45:44.104Z,8.23
2022-10-09T16:48:13.507Z,7.80
2022-10-09T16:50:43.620Z,8.90
2022-10-09T16:53:13.037Z,8.13
2022-10-09T16:55:43.788Z,8.13
2022-10-09T16:58:13.226Z,8.63
2022-10-09T17:00:42.767Z,7.97
2022-10-09T17:03:12.341Z,7.70
2022-10-09T17:05:41.779Z,8.18
2022-10-09T17:08:11.312Z,8.45
2022-10-09T17:10:44.217Z,7.95
2022-10-09T17:13:13.680Z,8.38
2022-10-09T17:15:43.671Z,8.90
2022-10-09T17:18:13.284Z,9.93
2022-10-09T17:20:42.817Z,12.55
2022-10-09T17:24:53.497Z,13.05
2022-10-09T17:27:25.086Z,14.40
2022-10-09T17:29:54.535Z,18.05
2022-10-09T17:32:23.998Z,12.23
2022-10-09T17:34:53.408Z,7.93
2022-10-09T17:37:22.917Z,7.38
2022-10-09T17:39:52.549Z,6.28
2022-10-09T17:42:21.989Z,6.20
2022-10-09T17:44:52.784Z,6.65
2022-10-09T17:47:22.273Z,6.90
2022-10-09T17:49:51.651Z,6.90
2022-10-09T17:52:21.254Z,6.95
2022-10-09T17:54:50.799Z,6.35
2022-10-09T17:57:20.261Z,6.32
2022-10-09T17:59:49.706Z,7.35
2022-10-09T18:02:20.546Z,8.77
2022-10-09T18:04:49.916Z,9.27
2022-10-09T18:07:20.136Z,11.07
2022-10-09T18:09:51.567Z,10.88
2022-10-09T18:12:21.005Z,13.13
2022-10-09T18:14:50.750Z,11.88
2022-10-09T18:17:21.794Z,13.80
2022-10-09T18:19:51.498Z,13.40
2022-10-09T18:22:20.864Z,13.32
2022-10-09T18:24:50.217Z,15.25
2022-10-09T18:27:20.273Z,16.83
2022-10-09T18:29:49.641Z,12.90
2022-10-09T18:32:19.045Z,12.75
2022-10-09T18:34:50.102Z,10.82
2022-10-09T18:37:20.237Z,10.65
2022-10-09T18:39:49.718Z,11.70
2022-10-09T18:42:19.195Z,12.02
2022-10-09T18:44:48.638Z,12.40
2022-10-09T18:47:20.836Z,12.70
2022-10-09T18:49:56.348Z,15.15
2022-10-09T18:52:26.849Z,17.48
2022-10-09T18:54:57.448Z,19.05
2022-10-09T18:57:28.838Z,23.35
2022-10-09T18:59:59.512Z,20.55
2022-10-09T19:02:29.005Z,20.63
2022-10-09T19:04:59.822Z,14.82
2022-10-09T19:07:29.407Z,11.73
2022-10-09T19:09:58.855Z,12.05
2022-10-09T19:12:28.511Z,10.23
2022-10-09T19:14:57.906Z,11.55
2022-10-09T19:17:27.446Z,15.52
2022-10-09T19:19:57.137Z,10.65
2022-10-09T19:22:27.988Z,8.95
2022-10-09T19:24:57.450Z,7.20
2022-10-09T19:27:27.269Z,7.30
2022-10-09T19:29:56.842Z,7.03
2022-10-09T19:32:26.662Z,6.68
2022-10-09T19:34:56.411Z,5.93
2022-10-09T19:37:29.689Z,6.72
2022-10-09T19:39:59.513Z,7.10
2022-10-09T19:42:29.066Z,9.55
2022-10-09T19:44:58.869Z,10.57
2022-10-09T19:47:28.233Z,13.13
2022-10-09T19:49:59.522Z,12.15
2022-10-09T19:52:30.429Z,15.18
2022-10-09T19:54:59.817Z,15.25
2022-10-09T19:57:29.322Z,21.38
2022-10-09T19:59:58.687Z,21.95
2022-10-09T20:02:28.054Z,20.60
2022-10-09T20:04:57.441Z,15.88
2022-10-09T20:07:26.887Z,12.30
2022-10-09T20:09:57.656Z,13.98
2022-10-09T20:12:27.261Z,16.73
2022-10-09T20:14:56.685Z,15.15
2022-10-09T20:17:26.122Z,16.77
2022-10-09T20:19:55.549Z,13.93
2022-10-09T20:22:24.998Z,13.20
2022-10-09T20:24:54.651Z,13.30
2022-10-09T20:27:25.377Z,13.20
2022-10-09T20:29:54.875Z,15.05
2022-10-09T20:32:25.450Z,12.40
2022-10-09T20:34:54.823Z,11.20
2022-10-09T20:37:24.353Z,10.30
2022-10-09T20:39:53.733Z,10.40
2022-10-09T20:42:24.953Z,10.45
2022-10-09T20:44:54.390Z,8.93
2022-10-09T20:47:23.866Z,10.57
2022-10-09T20:49:53.270Z,10.07
2022-10-09T20:52:22.731Z,10.35
2022-10-09T20:54:52.509Z,10.20
2022-10-09T20:57:21.956Z,10.15
2022-10-09T20:59:52.804Z,10.10
2022-10-09T21:02:22.321Z,10.52
2022-10-09T21:04:52.163Z,11.05
2022-10-09T21:07:21.582Z,10.25
2022-10-09T21:09:51.122Z,8.93
2022-10-09T21:12:20.741Z,10.02
2022-10-09T21:14:51.900Z,10.30
2022-10-09T21:17:21.347Z,9.35
2022-10-09T21:19:51.439Z,10.18
2022-10-09T21:22:22.189Z,10.38
2022-10-09T21:24:51.941Z,10.82
2022-10-09T21:27:21.378Z,11.82
2022-10-09T21:29:52.226Z,12.10
2022-10-09T21:32:21.726Z,11.48
2022-10-09T21:34:51.381Z,13.02
2022-10-09T21:37:22.041Z,11.18
2022-10-09T21:39:51.902Z,10.05
2022-10-09T21:42:22.829Z,11.35
2022-10-09T21:44:53.942Z,11.90
2022-10-09T21:47:23.458Z,12.00
2022-10-09T21:49:53.684Z,11.00
2022-10-09T21:52:23.262Z,10.77
2022-10-09T21:54:52.785Z,10.18
2022-10-09T21:57:36.127Z,10.18
2022-10-09T22:00:10.975Z,10.43
2022-10-09T22:02:40.858Z,10.18
2022-10-09T22:05:10.955Z,10.68
2022-10-09T22:07:40.830Z,10.00
2022-10-09T22:10:11.966Z,9.43
2022-10-09T22:12:42.740Z,9.95
2022-10-09T22:15:13.901Z,9.27
2022-10-09T22:17:43.263Z,10.20
2022-10-09T22:20:13.086Z,9.93
2022-10-09T22:22:42.705Z,9.25
2022-10-09T22:25:12.192Z,11.20
2022-10-09T22:27:41.590Z,11.48
2022-10-09T22:30:14.225Z,11.15
2022-10-09T22:32:43.930Z,20.15
2022-10-09T22:35:13.340Z,14.18
2022-10-09T22:37:42.789Z,11.75
2022-10-09T22:40:12.635Z,10.48
2022-10-09T22:42:42.026Z,9.07
2022-10-09T22:45:13.150Z,9.88
2022-10-09T22:47:42.671Z,10.43
2022-10-09T22:50:12.230Z,11.15
2022-10-09T22:52:41.719Z,10.70
2022-10-09T22:55:11.301Z,11.27
2022-10-09T22:57:40.672Z,12.75
2022-10-09T23:00:14.454Z,11.77
2022-10-09T23:02:43.829Z,14.55
2022-10-09T23:05:15.972Z,15.00
2022-10-09T23:07:45.320Z,13.30
2022-10-09T23:10:14.934Z,11.70
2022-10-09T23:12:44.316Z,13.25
2022-10-09T23:15:15.292Z,11.48
2022-10-09T23:17:44.702Z,13.00
2022-10-09T23:20:14.112Z,11.15
2022-10-09T23:22:43.574Z,12.73
2022-10-09T23:25:12.957Z,12.82
2022-10-09T23:27:42.301Z,12.35
2022-10-09T23:30:14.776Z,10.50
2022-10-09T23:32:44.202Z,11.48
2022-10-09T23:35:13.646Z,12.95
2022-10-09T23:37:43.150Z,11.85
2022-10-09T23:40:12.701Z,11.93
2022-10-09T23:42:42.078Z,12.75
2022-10-09T23:45:13.985Z,13.50
2022-10-09T23:47:43.363Z,11.35
2022-10-09T23:50:12.717Z,11.27
2022-10-09T23:52:42.150Z,12.32
2022-10-09T23:55:11.557Z,11.48
2022-10-09T23:57:40.936Z,11.43
